createdAt,value
2023-08-27T00:05:14.777Z,100.00
2023-08-27T00:29:49.609Z,100.00
2023-08-27T00:32:25.317Z,100.00
2023-08-27T00:47:07.076Z,100.00
2023-08-27T00:49:34.449Z,100.00
2023-08-27T00:52:03.417Z,100.00
2023-08-27T00:54:31.469Z,100.00
2023-08-27T01:20:50.750Z,100.00
2023-08-27T01:23:18.388Z,100.00
2023-08-27T01:32:58.608Z,100.00
2023-08-27T01:35:26.893Z,100.00
2023-08-27T01:47:25.692Z,100.00
2023-08-27T01:49:53.372Z,100.00
2023-08-27T01:59:08.274Z,100.00
2023-08-27T02:28:29.621Z,100.00
2023-08-27T02:37:46.301Z,100.00
2023-08-27T02:49:41.413Z,100.00
2023-08-27T02:52:10.329Z,100.00
2023-08-27T02:54:37.796Z,100.00
2023-08-27T02:57:12.072Z,100.00
2023-08-27T02:59:39.574Z,100.00
2023-08-27T03:14:59.665Z,100.00
2023-08-27T03:17:27.095Z,100.00
2023-08-27T03:19:54.562Z,100.00
2023-08-27T03:27:36.705Z,100.00
2023-08-27T03:30:08.538Z,100.00
2023-08-27T03:32:36.784Z,100.00
2023-08-27T03:35:04.661Z,100.00
2023-08-27T03:37:32.265Z,100.00
2023-08-27T03:40:01.482Z,100.00
2023-08-27T03:42:33.129Z,100.00
2023-08-27T03:45:04.387Z,100.00
2023-08-27T03:47:32.381Z,100.00
2023-08-27T03:49:59.588Z,100.00
2023-08-27T03:52:27.144Z,100.00
2023-08-27T04:04:23.528Z,100.00
2023-08-27T05:32:49.826Z,100.00
2023-08-27T05:40:56.844Z,100.00
2023-08-27T05:43:25.494Z,100.00
2023-08-27T05:45:52.791Z,100.00
2023-08-27T05:48:20.309Z,100.00
2023-08-27T05:50:47.936Z,100.00
2023-08-27T05:53:16.806Z,100.00
2023-08-27T05:55:45.716Z,100.00
2023-08-27T05:58:13.224Z,100.00
2023-08-27T06:00:40.474Z,100.00
2023-08-27T06:03:07.864Z,100.00
2023-08-27T06:05:35.878Z,100.00
2023-08-27T06:08:08.074Z,100.00
2023-08-27T06:10:36.181Z,100.00
2023-08-27T06:13:04.826Z,100.00
2023-08-27T06:15:35.858Z,100.00
2023-08-27T06:18:04.698Z,100.00
2023-08-27T06:20:33.253Z,100.00
2023-08-27T06:23:07.013Z,100.00
2023-08-27T06:25:36.271Z,100.00
2023-08-27T06:28:05.543Z,100.00
2023-08-27T06:30:33.654Z,100.00
2023-08-27T06:33:04.889Z,100.00
2023-08-27T06:35:33.660Z,100.00
2023-08-27T06:46:55.964Z,100.00
2023-08-27T06:50:39.828Z,100.00
2023-08-27T06:54:25.195Z,100.00
2023-08-27T06:56:52.701Z,100.00
2023-08-27T06:59:47.916Z,100.00
2023-08-27T07:06:30.376Z,100.00
2023-08-27T07:08:57.948Z,100.00
2023-08-27T07:12:22.189Z,100.00
2023-08-27T07:31:50.153Z,100.00
2023-08-27T07:34:43.716Z,100.00
2023-08-27T07:37:14.895Z,100.00
2023-08-27T07:40:10.773Z,100.00
2023-08-27T08:55:27.597Z,95.00
2023-08-27T08:58:03.522Z,94.43
2023-08-27T09:00:32.340Z,92.95
2023-08-27T09:03:04.550Z,92.10
2023-08-27T09:05:39.503Z,90.81
2023-08-27T09:11:29.261Z,89.83
2023-08-27T10:18:01.332Z,78.45
2023-08-27T10:58:48.116Z,72.69
2023-08-27T11:01:23.214Z,73.03
2023-08-27T11:04:03.575Z,72.55
2023-08-27T11:19:46.850Z,74.51
2023-08-27T11:22:20.948Z,73.20
2023-08-27T12:31:54.068Z,70.95
2023-08-27T12:37:33.060Z,69.44
2023-08-27T12:51:20.472Z,68.19
2023-08-27T12:54:07.204Z,69.17
2023-08-27T12:57:07.054Z,71.64
2023-08-27T13:02:48.141Z,74.69
2023-08-27T13:05:29.705Z,75.89
2023-08-27T13:08:03.366Z,76.02
2023-08-27T13:10:44.905Z,75.29
2023-08-27T13:13:17.021Z,74.29
2023-08-27T13:15:44.708Z,74.10
2023-08-27T13:18:14.728Z,73.72
2023-08-27T13:20:42.512Z,74.09
2023-08-27T13:23:10.793Z,72.35
2023-08-27T13:25:45.523Z,72.77
2023-08-27T13:28:15.242Z,73.68
2023-08-27T13:30:42.800Z,74.76
2023-08-27T13:33:31.379Z,75.32
2023-08-27T13:36:04.803Z,75.68
2023-08-27T13:38:33.527Z,76.69
2023-08-27T13:41:01.152Z,78.20
2023-08-27T13:43:33.120Z,78.82
2023-08-27T13:46:06.269Z,78.51
2023-08-27T13:48:36.668Z,79.82
2023-08-27T13:51:08.254Z,80.67
2023-08-27T13:53:38.313Z,81.35
2023-08-27T14:00:31.535Z,81.90
2023-08-27T14:02:59.029Z,82.38
2023-08-27T14:05:27.013Z,82.95
2023-08-27T14:07:55.112Z,80.75
2023-08-27T14:10:25.529Z,79.23
2023-08-27T14:12:59.563Z,79.49
2023-08-27T14:15:33.088Z,79.70
2023-08-27T14:18:01.153Z,82.15
2023-08-27T14:20:30.449Z,81.99
2023-08-27T14:22:58.709Z,82.68
2023-08-27T14:25:30.208Z,80.44
2023-08-27T14:27:58.037Z,81.19
2023-08-27T14:30:37.759Z,82.22
2023-08-27T14:33:46.855Z,81.97
2023-08-27T14:36:59.448Z,80.06
2023-08-27T14:39:43.249Z,80.00
2023-08-27T14:42:17.668Z,80.06
2023-08-27T14:45:07.914Z,80.22
2023-08-27T14:47:57.973Z,83.04
2023-08-27T14:50:35.495Z,82.61
2023-08-27T14:58:56.916Z,85.21
2023-08-27T15:27:08.050Z,87.11
2023-08-27T15:30:55.942Z,87.21
2023-08-27T15:34:11.024Z,85.49
2023-08-27T16:18:34.593Z,86.53
2023-08-27T16:24:36.453Z,89.49
2023-08-27T16:31:28.348Z,92.80
2023-08-27T16:53:30.742Z,97.08
2023-08-27T16:58:50.186Z,98.14
2023-08-27T17:01:20.318Z,98.69
2023-08-27T17:03:50.284Z,98.97
2023-08-27T17:06:17.685Z,99.11
2023-08-27T17:08:45.328Z,99.16
2023-08-27T17:11:35.861Z,99.51
2023-08-27T17:14:07.789Z,99.22
2023-08-27T17:16:41.133Z,99.34
2023-08-27T17:19:14.285Z,99.36
2023-08-27T17:21:48.071Z,99.13
2023-08-27T17:24:17.518Z,99.26
2023-08-27T17:26:45.000Z,99.88
2023-08-27T17:29:12.710Z,100.00
2023-08-27T17:31:40.267Z,100.00
2023-08-27T17:34:37.852Z,100.00
2023-08-27T17:37:08.432Z,100.00
2023-08-27T17:39:36.073Z,100.00
2023-08-27T17:42:08.865Z,100.00
2023-08-27T17:44:39.551Z,100.00
2023-08-27T17:47:10.637Z,100.00
2023-08-27T17:49:41.944Z,100.00
2023-08-27T17:52:13.474Z,100.00
2023-08-27T17:54:45.177Z,100.00
2023-08-27T17:57:20.429Z,100.00
2023-08-27T17:59:55.272Z,100.00
2023-08-27T18:02:24.348Z,100.00
2023-08-27T18:04:54.712Z,100.00
2023-08-27T18:07:25.378Z,100.00
2023-08-27T18:14:26.598Z,100.00
2023-08-27T18:16:54.467Z,100.00
2023-08-27T18:19:21.845Z,100.00
2023-08-27T18:21:53.798Z,100.00
2023-08-27T18:26:24.569Z,100.00
2023-08-27T18:28:54.811Z,100.00
2023-08-27T18:31:22.353Z,100.00
2023-08-27T18:33:50.348Z,100.00
2023-08-27T18:36:18.082Z,100.00
2023-08-27T18:38:45.608Z,100.00
2023-08-27T18:41:13.223Z,100.00
2023-08-27T18:44:32.468Z,100.00
2023-08-27T18:46:59.756Z,100.00
2023-08-27T18:49:27.158Z,100.00
2023-08-27T18:51:57.577Z,100.00
2023-08-27T18:55:15.952Z,100.00
2023-08-27T18:57:15.440Z,100.00
2023-08-27T18:59:42.915Z,100.00
2023-08-27T19:07:16.517Z,100.00
2023-08-27T19:09:47.064Z,100.00
2023-08-27T19:17:12.550Z,100.00
2023-08-27T19:24:28.887Z,100.00
2023-08-27T19:26:56.517Z,100.00
2023-08-27T19:38:29.197Z,100.00
2023-08-27T19:50:26.893Z,100.00
2023-08-27T19:54:57.829Z,100.00
2023-08-27T19:57:28.259Z,100.00
2023-08-27T19:59:55.680Z,100.00
2023-08-27T20:02:31.851Z,100.00
2023-08-27T20:04:59.315Z,100.00
2023-08-27T20:07:28.203Z,100.00
2023-08-27T20:10:01.498Z,100.00
2023-08-27T20:12:31.708Z,100.00
2023-08-27T20:14:59.148Z,100.00
2023-08-27T20:17:51.599Z,100.00
2023-08-27T20:20:19.209Z,100.00
2023-08-27T20:22:46.513Z,100.00
2023-08-27T20:25:13.777Z,100.00
2023-08-27T20:32:30.401Z,100.00
2023-08-27T20:37:21.061Z,100.00
2023-08-27T20:39:50.842Z,100.00
2023-08-27T20:42:18.149Z,100.00
2023-08-27T20:44:47.104Z,100.00
2023-08-27T21:15:42.420Z,100.00
2023-08-27T21:18:10.253Z,100.00
2023-08-27T21:20:37.535Z,100.00
2023-08-27T21:23:05.115Z,100.00
2023-08-27T21:25:32.338Z,100.00
2023-08-27T21:27:59.625Z,100.00
2023-08-27T21:30:52.957Z,100.00
2023-08-27T21:38:05.231Z,100.00
2023-08-27T21:40:39.879Z,100.00
2023-08-27T21:47:37.738Z,100.00
2023-08-27T21:50:05.891Z,100.00
2023-08-27T21:52:33.277Z,100.00
2023-08-27T21:55:00.856Z,100.00
2023-08-27T22:01:59.384Z,100.00
2023-08-27T22:04:27.714Z,100.00
2023-08-27T22:06:54.919Z,100.00
2023-08-27T22:09:24.181Z,100.00
2023-08-27T22:11:54.625Z,100.00
2023-08-27T22:14:21.833Z,100.00
2023-08-27T22:16:49.256Z,100.00
2023-08-27T22:19:23.850Z,100.00
2023-08-27T22:21:51.781Z,100.00
2023-08-27T22:37:58.217Z,100.00
2023-08-27T22:44:51.639Z,100.00
2023-08-27T22:47:18.790Z,100.00
2023-08-27T22:49:45.933Z,100.00
2023-08-27T22:52:13.187Z,100.00
2023-08-27T22:59:19.046Z,100.00
2023-08-27T23:01:46.355Z,100.00
2023-08-27T23:04:13.500Z,100.00
2023-08-27T23:10:59.550Z,100.00
2023-08-27T23:18:22.422Z,100.00
2023-08-27T23:25:20.174Z,100.00
2023-08-27T23:27:47.482Z,100.00
2023-08-27T23:30:15.180Z,100.00
2023-08-27T23:37:17.841Z,100.00
2023-08-27T23:39:44.994Z,100.00
2023-08-27T23:46:45.777Z,100.00
2023-08-27T23:49:15.531Z,100.00
2023-08-27T23:56:14.240Z,100.00
2023-08-27T23:58:41.505Z,100.00
